Congressman Robert A.roe — WDH3491 — position and weather

sailwx.info

Track history (hours):
 
Tides and Currents Weather Stations Pressure Air Temp Water Temp Dewpoint Dewpoint Depression Visibility Wind Speed Wind Dir Waves Ship Positions

Congressman Robert A.roe

Owner: Port Imperial Ferry Corp., Weehawken, NJ. More information available from US FCC via Universal Licensing System and Coast Guard Vessel Documentation Center.

Last reported at 2017-Oct-20 01:44 UTC. Time now 2017-Oct-20 05:31 UTC.
Position N 40°32' W 074°03'.

Length 27 m.

Type: Passenger vessel. MMSI: 366902360.

Date/timePositionNaut miles runAvg speedWind from/ knotsBaromVisibWave heightAir tempDewpointWater temp
2017-Oct-20 01:44N 40°32' W 074°03'624.9
2017-Oct-20 01:30N 40°37' W 074°03'611.5
2017-Oct-20 01:01N 40°43' W 074°01'8 6.0
2017-Oct-19 23:40N 40°35' W 074°04'321.6
2017-Oct-19 23:30N 40°38' W 074°03'5 9.9
2017-Oct-19 23:00N 40°43' W 074°01'2 4.4
2017-Oct-19 22:31N 40°41' W 074°02'6 5.6
2017-Oct-19 21:22N 40°35' W 074°04'821.5
2017-Oct-19 21:00N 40°42' W 074°00'2 3.2
2017-Oct-19 20:30N 40°41' W 074°02'10 9.8
2017-Oct-19 19:29N 40°31' W 074°03'1224.8
2017-Oct-19 19:01N 40°42' W 074°00'3 7.0
2017-Oct-19 18:31N 40°46' W 074°00'3 5.5
2017-Oct-19 18:00N 40°43' W 074°01'1 1.1
2017-Oct-19 17:31N 40°43' W 074°01'3 0.8
2017-Oct-19 14:07N 40°46' W 074°01'0 0.0
2017-Oct-19 14:00N 40°46' W 074°01'4 8.9
2017-Oct-19 13:31N 40°42' W 074°01'1119.8
2017-Oct-19 12:59N 40°32' W 074°04'3 6.6
2017-Oct-19 12:30N 40°29' W 074°04'1225.5
2017-Oct-19 12:01N 40°41' W 074°02'1 3.0
2017-Oct-19 11:31N 40°40' W 074°02'5 0.5
2017-Oct-19 01:37N 40°35' W 074°04'324.9
2017-Oct-19 01:30N 40°38' W 074°03'510.6
2017-Oct-19 01:01N 40°43' W 074°01'8 6.2
2017-Oct-18 23:40N 40°35' W 074°04'322.7
2017-Oct-18 23:30N 40°38' W 074°03'510.1
2017-Oct-18 23:00N 40°43' W 074°01'3 6.4
2017-Oct-18 22:31N 40°40' W 074°01'6 5.3
2017-Oct-18 21:26N 40°34' W 074°04'819.1
2017-Oct-18 21:00N 40°42' W 074°00'2 4.8
2017-Oct-18 20:31N 40°40' W 074°01'8 7.5
2017-Oct-18 19:26N 40°32' W 074°03'1024.3
2017-Oct-18 19:00N 40°42' W 074°00'3 6.8
2017-Oct-18 18:30N 40°46' W 074°00'3 5.6
2017-Oct-18 18:01N 40°43' W 074°01'3 5.3
2017-Oct-18 17:30N 40°46' W 074°01'1 0.2
2017-Oct-18 13:59N 40°46' W 074°01'4 9.5
2017-Oct-18 13:31N 40°42' W 074°01'8 7.0
2017-Oct-18 12:19N 40°34' W 074°04'825.6
2017-Oct-18 12:01N 40°42' W 074°02'3 6.8
2017-Oct-18 11:31N 40°38' W 074°03'7 0.7
2017-Oct-18 01:42N 40°32' W 074°03'525.6
2017-Oct-18 01:30N 40°37' W 074°03'612.7
2017-Oct-18 01:01N 40°43' W 074°01'11 8.2
2017-Oct-17 23:43N 40°32' W 074°03'522.9
2017-Oct-17 23:30N 40°38' W 074°03'611.6
2017-Oct-17 23:00N 40°43' W 074°01'2 4.1
2017-Oct-17 22:31N 40°41' W 074°02'7 6.2
2017-Oct-17 21:23N 40°34' W 074°04'820.6
2017-Oct-17 21:01N 40°42' W 074°00'2 4.0
2017-Oct-17 20:31N 40°40' W 074°01'7 6.3
2017-Oct-17 19:24N 40°33' W 074°03'924.3
2017-Oct-17 19:01N 40°42' W 074°00'4 7.0
2017-Oct-17 18:30N 40°46' W 074°00'3 5.4
2017-Oct-17 18:00N 40°43' W 074°01'2 3.8
2017-Oct-17 17:31N 40°45' W 074°01'1 0.4
2017-Oct-17 14:06N 40°46' W 074°01'0 0.1
2017-Oct-17 13:59N 40°46' W 074°01'4 8.5
2017-Oct-17 13:31N 40°42' W 074°00'11 9.1
2017-Oct-17 12:21N 40°32' W 074°03'927.0
2017-Oct-17 12:01N 40°41' W 074°02'2 3.2
2017-Oct-17 11:30N 40°40' W 074°03'8 0.8
2017-Oct-17 01:39N 40°32' W 074°03'429.0
2017-Oct-17 01:30N 40°36' W 074°03'714.3
2017-Oct-17 01:00N 40°43' W 074°01'10 7.4
2017-Oct-16 23:40N 40°33' W 074°04'425.1
2017-Oct-16 23:30N 40°37' W 074°03'611.8
2017-Oct-16 23:00N 40°43' W 074°01'3 6.5
2017-Oct-16 22:31N 40°40' W 074°01'7 6.5
2017-Oct-16 21:27N 40°33' W 074°04'921.3
2017-Oct-16 21:00N 40°42' W 074°00'3 5.0
2017-Oct-16 20:31N 40°40' W 074°01'5 4.6
2017-Oct-16 19:20N 40°35' W 074°04'824.3
2017-Oct-16 19:00N 40°42' W 074°00'3 6.9
2017-Oct-16 18:30N 40°46' W 074°00'3 5.6
2017-Oct-16 18:00N 40°43' W 074°01'0 0.1
2017-Oct-16 17:31N 40°43' W 074°01'3 1.0
2017-Oct-16 14:08N 40°46' W 074°01'4 6.6
2017-Oct-16 13:30N 40°42' W 074°00'10 9.6
2017-Oct-16 12:25N 40°32' W 074°03'1126.3
2017-Oct-16 12:01N 40°43' W 074°02'611.8
2017-Oct-16 11:30N 40°37' W 074°03'  
2017-Oct-14 01:38N 40°32' W 074°03'428.6
2017-Oct-14 01:30N 40°36' W 074°03'714.3
2017-Oct-14 01:00N 40°43' W 074°01'12 8.9
2017-Oct-13 23:41N 40°31' W 074°03'527.0
2017-Oct-13 23:30N 40°36' W 074°03'713.4
2017-Oct-13 23:00N 40°43' W 074°01'4 7.3
2017-Oct-13 22:30N 40°39' W 074°02'9 8.8
2017-Oct-13 21:31N 40°31' W 074°03'023.1
2017-Oct-13 21:30N 40°31' W 074°03'1122.4
2017-Oct-13 21:00N 40°42' W 074°00'2 4.2
2017-Oct-13 20:30N 40°40' W 074°01'6 5.3
2017-Oct-13 19:22N 40°35' W 074°04'822.7
2017-Oct-13 19:00N 40°42' W 074°00'3 6.8
2017-Oct-13 18:30N 40°46' W 074°00'3 5.6
2017-Oct-13 18:00N 40°43' W 074°01'1 2.1
2017-Oct-13 17:30N 40°44' W 074°01'2 0.7
2017-Oct-13 13:58N 40°46' W 074°01'4 9.0
2017-Oct-13 13:30N 40°42' W 074°00'919.4
2017-Oct-13 13:00N 40°33' W 074°02'2 3.1
2017-Oct-13 12:25N 40°31' W 074°03'1228.6
2017-Oct-13 12:00N 40°43' W 074°02'611.5
2017-Oct-13 11:30N 40°37' W 074°03'5 0.6
2017-Oct-13 01:42N 40°32' W 074°03'626.7
2017-Oct-13 01:30N 40°37' W 074°03'611.8
2017-Oct-13 01:00N 40°43' W 074°01'11 7.9
2017-Oct-12 23:40N 40°32' W 074°03'426.4
2017-Oct-12 23:30N 40°37' W 074°03'612.0
2017-Oct-12 23:00N 40°43' W 074°02'4 8.0
2017-Oct-12 22:31N 40°39' W 074°02'8 8.2
2017-Oct-12 21:30N 40°31' W 074°03'1222.6
2017-Oct-12 21:00N 40°42' W 074°00'3 7.0
2017-Oct-12 20:30N 40°39' W 074°02'1010.0
2017-Oct-12 19:33N 40°30' W 074°04'425.8
2017-Oct-12 19:23N 40°33' W 074°03'922.9
2017-Oct-12 19:00N 40°42' W 074°00'3 6.9
2017-Oct-12 18:30N 40°46' W 074°00'3 5.5
2017-Oct-12 18:00N 40°43' W 074°01'3 0.9
2017-Oct-12 14:06N 40°46' W 074°01'1 6.6
2017-Oct-12 14:00N 40°46' W 074°01'4 8.7
2017-Oct-12 13:30N 40°41' W 074°01'9 8.8
2017-Oct-12 12:27N 40°32' W 074°03'1122.9
2017-Oct-12 12:00N 40°43' W 074°02'612.0
2017-Oct-12 11:30N 40°37' W 074°03'5 0.6
2017-Oct-12 02:03N 40°32' W 074°03'217.7
2017-Oct-12 01:57N 40°33' W 074°03'817.6
2017-Oct-12 01:30N 40°41' W 074°01'612.2
2017-Oct-12 01:00N 40°35' W 074°03'1 1.1
2017-Oct-11 23:54N 40°34' W 074°04'615.3
2017-Oct-11 23:30N 40°40' W 074°02'3 6.1
2017-Oct-11 23:00N 40°43' W 074°01'4 7.8
2017-Oct-11 22:30N 40°40' W 074°01'8 7.4
2017-Oct-11 21:27N 40°32' W 074°03'1122.8
2017-Oct-11 20:59N 40°42' W 074°00'3 6.2
2017-Oct-11 20:30N 40°39' W 074°02'5 4.8
2017-Oct-11 19:22N 40°34' W 074°03'822.6
2017-Oct-11 19:00N 40°42' W 074°00'3 7.0
2017-Oct-11 18:30N 40°46' W 074°00'3 5.5
2017-Oct-11 18:00N 40°43' W 074°01'1 2.5
2017-Oct-11 17:31N 40°44' W 074°01'12 0.7
2017-Oct-10 23:43N 40°32' W 074°03'625.6
2017-Oct-10 23:30N 40°38' W 074°03'611.6
2017-Oct-10 23:00N 40°43' W 074°01'3 5.5
2017-Oct-10 22:30N 40°40' W 074°01'10 9.9
2017-Oct-10 21:30N 40°30' W 074°03'1223.8
2017-Oct-10 21:00N 40°42' W 074°00'3 5.3
2017-Oct-10 20:30N 40°40' W 074°03'10 9.8
2017-Oct-10 19:29N 40°30' W 074°03'1226.2
2017-Oct-10 19:01N 40°42' W 074°00'3 6.7
2017-Oct-10 18:30N 40°46' W 074°00'3 5.7
2017-Oct-10 18:00N 40°43' W 074°01'1 2.5
2017-Oct-10 17:30N 40°44' W 074°02'2 4.5
2017-Oct-10 17:00N 40°46' W 074°01'0 0.0
2017-Oct-10 16:31N 40°46' W 074°01'0 0.0
2017-Oct-10 16:00N 40°46' W 074°01'0 0.0
2017-Oct-10 15:31N 40°46' W 074°01'0 0.0
2017-Oct-10 13:56N 40°46' W 074°01'4 9.9
2017-Oct-10 13:30N 40°42' W 074°00'10 8.7
2017-Oct-10 12:20N 40°32' W 074°03'927.0
2017-Oct-10 12:01N 40°41' W 074°02'2 3.8
2017-Oct-10 11:31N 40°39' W 074°02'  
Track history (hours):
 
Tides and Currents Weather Stations Pressure Air Temp Water Temp Dewpoint Dewpoint Depression Visibility Wind Speed Wind Dir Waves Ship Positions

Congressman Robert A.roe

Owner: Port Imperial Ferry Corp., Weehawken, NJ. More information available from US FCC via Universal Licensing System and Coast Guard Vessel Documentation Center.

Last reported at 2017-Oct-20 01:44 UTC. Time now 2017-Oct-20 05:31 UTC.
Position N 40°32' W 074°03'.

Length 27 m.

Type: Passenger vessel. MMSI: 366902360.

Date/timePositionNaut miles runAvg speedWind from/ knotsBaromVisibWave heightAir tempDewpointWater temp
2017-Oct-20 01:44N 40°32' W 074°03'624.9
2017-Oct-20 01:30N 40°37' W 074°03'611.5
2017-Oct-20 01:01N 40°43' W 074°01'8 6.0
2017-Oct-19 23:40N 40°35' W 074°04'321.6
2017-Oct-19 23:30N 40°38' W 074°03'5 9.9
2017-Oct-19 23:00N 40°43' W 074°01'2 4.4
2017-Oct-19 22:31N 40°41' W 074°02'6 5.6
2017-Oct-19 21:22N 40°35' W 074°04'821.5
2017-Oct-19 21:00N 40°42' W 074°00'2 3.2
2017-Oct-19 20:30N 40°41' W 074°02'10 9.8
2017-Oct-19 19:29N 40°31' W 074°03'1224.8
2017-Oct-19 19:01N 40°42' W 074°00'3 7.0
2017-Oct-19 18:31N 40°46' W 074°00'3 5.5
2017-Oct-19 18:00N 40°43' W 074°01'1 1.1
2017-Oct-19 17:31N 40°43' W 074°01'3 0.8
2017-Oct-19 14:07N 40°46' W 074°01'0 0.0
2017-Oct-19 14:00N 40°46' W 074°01'4 8.9
2017-Oct-19 13:31N 40°42' W 074°01'1119.8
2017-Oct-19 12:59N 40°32' W 074°04'3 6.6
2017-Oct-19 12:30N 40°29' W 074°04'1225.5
2017-Oct-19 12:01N 40°41' W 074°02'1 3.0
2017-Oct-19 11:31N 40°40' W 074°02'5 0.5
2017-Oct-19 01:37N 40°35' W 074°04'324.9
2017-Oct-19 01:30N 40°38' W 074°03'510.6
2017-Oct-19 01:01N 40°43' W 074°01'8 6.2
2017-Oct-18 23:40N 40°35' W 074°04'322.7
2017-Oct-18 23:30N 40°38' W 074°03'510.1
2017-Oct-18 23:00N 40°43' W 074°01'3 6.4
2017-Oct-18 22:31N 40°40' W 074°01'6 5.3
2017-Oct-18 21:26N 40°34' W 074°04'819.1
2017-Oct-18 21:00N 40°42' W 074°00'2 4.8
2017-Oct-18 20:31N 40°40' W 074°01'8 7.5
2017-Oct-18 19:26N 40°32' W 074°03'1024.3
2017-Oct-18 19:00N 40°42' W 074°00'3 6.8
2017-Oct-18 18:30N 40°46' W 074°00'3 5.6
2017-Oct-18 18:01N 40°43' W 074°01'3 5.3
2017-Oct-18 17:30N 40°46' W 074°01'1 0.2
2017-Oct-18 13:59N 40°46' W 074°01'4 9.5
2017-Oct-18 13:31N 40°42' W 074°01'8 7.0
2017-Oct-18 12:19N 40°34' W 074°04'825.6
2017-Oct-18 12:01N 40°42' W 074°02'3 6.8
2017-Oct-18 11:31N 40°38' W 074°03'7 0.7
2017-Oct-18 01:42N 40°32' W 074°03'525.6
2017-Oct-18 01:30N 40°37' W 074°03'612.7
2017-Oct-18 01:01N 40°43' W 074°01'11 8.2
2017-Oct-17 23:43N 40°32' W 074°03'522.9
2017-Oct-17 23:30N 40°38' W 074°03'611.6
2017-Oct-17 23:00N 40°43' W 074°01'2 4.1
2017-Oct-17 22:31N 40°41' W 074°02'7 6.2
2017-Oct-17 21:23N 40°34' W 074°04'820.6
2017-Oct-17 21:01N 40°42' W 074°00'2 4.0
2017-Oct-17 20:31N 40°40' W 074°01'7 6.3
2017-Oct-17 19:24N 40°33' W 074°03'924.3
2017-Oct-17 19:01N 40°42' W 074°00'4 7.0
2017-Oct-17 18:30N 40°46' W 074°00'3 5.4
2017-Oct-17 18:00N 40°43' W 074°01'2 3.8
2017-Oct-17 17:31N 40°45' W 074°01'1 0.4
2017-Oct-17 14:06N 40°46' W 074°01'0 0.1
2017-Oct-17 13:59N 40°46' W 074°01'4 8.5
2017-Oct-17 13:31N 40°42' W 074°00'11 9.1
2017-Oct-17 12:21N 40°32' W 074°03'927.0
2017-Oct-17 12:01N 40°41' W 074°02'2 3.2
2017-Oct-17 11:30N 40°40' W 074°03'8 0.8
2017-Oct-17 01:39N 40°32' W 074°03'429.0
2017-Oct-17 01:30N 40°36' W 074°03'714.3
2017-Oct-17 01:00N 40°43' W 074°01'10 7.4
2017-Oct-16 23:40N 40°33' W 074°04'425.1
2017-Oct-16 23:30N 40°37' W 074°03'611.8
2017-Oct-16 23:00N 40°43' W 074°01'3 6.5
2017-Oct-16 22:31N 40°40' W 074°01'7 6.5
2017-Oct-16 21:27N 40°33' W 074°04'921.3
2017-Oct-16 21:00N 40°42' W 074°00'3 5.0
2017-Oct-16 20:31N 40°40' W 074°01'5 4.6
2017-Oct-16 19:20N 40°35' W 074°04'824.3
2017-Oct-16 19:00N 40°42' W 074°00'3 6.9
2017-Oct-16 18:30N 40°46' W 074°00'3 5.6
2017-Oct-16 18:00N 40°43' W 074°01'0 0.1
2017-Oct-16 17:31N 40°43' W 074°01'3 1.0
2017-Oct-16 14:08N 40°46' W 074°01'4 6.6
2017-Oct-16 13:30N 40°42' W 074°00'10 9.6
2017-Oct-16 12:25N 40°32' W 074°03'1126.3
2017-Oct-16 12:01N 40°43' W 074°02'611.8
2017-Oct-16 11:30N 40°37' W 074°03'  
2017-Oct-14 01:38N 40°32' W 074°03'428.6
2017-Oct-14 01:30N 40°36' W 074°03'714.3
2017-Oct-14 01:00N 40°43' W 074°01'12 8.9
2017-Oct-13 23:41N 40°31' W 074°03'527.0
2017-Oct-13 23:30N 40°36' W 074°03'713.4
2017-Oct-13 23:00N 40°43' W 074°01'4 7.3
2017-Oct-13 22:30N 40°39' W 074°02'9 8.8
2017-Oct-13 21:31N 40°31' W 074°03'023.1
2017-Oct-13 21:30N 40°31' W 074°03'1122.4
2017-Oct-13 21:00N 40°42' W 074°00'2 4.2
2017-Oct-13 20:30N 40°40' W 074°01'6 5.3
2017-Oct-13 19:22N 40°35' W 074°04'822.7
2017-Oct-13 19:00N 40°42' W 074°00'3 6.8
2017-Oct-13 18:30N 40°46' W 074°00'3 5.6
2017-Oct-13 18:00N 40°43' W 074°01'1 2.1
2017-Oct-13 17:30N 40°44' W 074°01'2 0.7
2017-Oct-13 13:58N 40°46' W 074°01'4 9.0
2017-Oct-13 13:30N 40°42' W 074°00'919.4
2017-Oct-13 13:00N 40°33' W 074°02'2 3.1
2017-Oct-13 12:25N 40°31' W 074°03'1228.6
2017-Oct-13 12:00N 40°43' W 074°02'611.5
2017-Oct-13 11:30N 40°37' W 074°03'5 0.6
2017-Oct-13 01:42N 40°32' W 074°03'626.7
2017-Oct-13 01:30N 40°37' W 074°03'611.8
2017-Oct-13 01:00N 40°43' W 074°01'11 7.9
2017-Oct-12 23:40N 40°32' W 074°03'426.4
2017-Oct-12 23:30N 40°37' W 074°03'612.0
2017-Oct-12 23:00N 40°43' W 074°02'4 8.0
2017-Oct-12 22:31N 40°39' W 074°02'8 8.2
2017-Oct-12 21:30N 40°31' W 074°03'1222.6
2017-Oct-12 21:00N 40°42' W 074°00'3 7.0
2017-Oct-12 20:30N 40°39' W 074°02'1010.0
2017-Oct-12 19:33N 40°30' W 074°04'425.8
2017-Oct-12 19:23N 40°33' W 074°03'922.9
2017-Oct-12 19:00N 40°42' W 074°00'3 6.9
2017-Oct-12 18:30N 40°46' W 074°00'3 5.5
2017-Oct-12 18:00N 40°43' W 074°01'3 0.9
2017-Oct-12 14:06N 40°46' W 074°01'1 6.6
2017-Oct-12 14:00N 40°46' W 074°01'4 8.7
2017-Oct-12 13:30N 40°41' W 074°01'9 8.8
2017-Oct-12 12:27N 40°32' W 074°03'1122.9
2017-Oct-12 12:00N 40°43' W 074°02'612.0
2017-Oct-12 11:30N 40°37' W 074°03'5 0.6
2017-Oct-12 02:03N 40°32' W 074°03'217.7
2017-Oct-12 01:57N 40°33' W 074°03'817.6
2017-Oct-12 01:30N 40°41' W 074°01'612.2
2017-Oct-12 01:00N 40°35' W 074°03'1 1.1
2017-Oct-11 23:54N 40°34' W 074°04'615.3
2017-Oct-11 23:30N 40°40' W 074°02'3 6.1
2017-Oct-11 23:00N 40°43' W 074°01'4 7.8
2017-Oct-11 22:30N 40°40' W 074°01'8 7.4
2017-Oct-11 21:27N 40°32' W 074°03'1122.8
2017-Oct-11 20:59N 40°42' W 074°00'3 6.2
2017-Oct-11 20:30N 40°39' W 074°02'5 4.8
2017-Oct-11 19:22N 40°34' W 074°03'822.6
2017-Oct-11 19:00N 40°42' W 074°00'3 7.0
2017-Oct-11 18:30N 40°46' W 074°00'3 5.5
2017-Oct-11 18:00N 40°43' W 074°01'1 2.5
2017-Oct-11 17:31N 40°44' W 074°01'12 0.7
2017-Oct-10 23:43N 40°32' W 074°03'625.6
2017-Oct-10 23:30N 40°38' W 074°03'611.6
2017-Oct-10 23:00N 40°43' W 074°01'3 5.5
2017-Oct-10 22:30N 40°40' W 074°01'10 9.9
2017-Oct-10 21:30N 40°30' W 074°03'1223.8
2017-Oct-10 21:00N 40°42' W 074°00'3 5.3
2017-Oct-10 20:30N 40°40' W 074°03'10 9.8
2017-Oct-10 19:29N 40°30' W 074°03'1226.2
2017-Oct-10 19:01N 40°42' W 074°00'3 6.7
2017-Oct-10 18:30N 40°46' W 074°00'3 5.7
2017-Oct-10 18:00N 40°43' W 074°01'1 2.5
2017-Oct-10 17:30N 40°44' W 074°02'2 4.5
2017-Oct-10 17:00N 40°46' W 074°01'0 0.0
2017-Oct-10 16:31N 40°46' W 074°01'0 0.0
2017-Oct-10 16:00N 40°46' W 074°01'0 0.0
2017-Oct-10 15:31N 40°46' W 074°01'0 0.0
2017-Oct-10 13:56N 40°46' W 074°01'4 9.9
2017-Oct-10 13:30N 40°42' W 074°00'10 8.7
2017-Oct-10 12:20N 40°32' W 074°03'927.0
2017-Oct-10 12:01N 40°41' W 074°02'2 3.8
2017-Oct-10 11:31N 40°39' W 074°02'  

Dump ship's entire track history